PIA123 OPPS-OPIS
Flight info
| Callsign | PIA123 |
|---|---|
| Flight time | 0h 27m |
| Altitude | 15000 |
| Route | KALMI |
| Aircraft | A20N/M-SDE2E3FGHIRWXY/LB1 |
Departure
| Time | 2026-04-26 18:39 |
|---|---|
| Airport | Bacha Khan International Airport (OPPS) |
Arrival
| Time | 2026-04-26 19:07 |
|---|---|
| Airport | Islamabad International Airport (OPIS) |
| Time | Latitude | Longitude | Altitude | Speed | Heading |
|---|---|---|---|---|---|
| 2026-04-26 18:26 | 33.99074 | 71.51828 | 1200 ft | 0 kts | 140° |
| 2026-04-26 18:32 | 33.99091 | 71.51809 | 1200 ft | 8 kts | 146° |
| 2026-04-26 18:32 | 33.99141 | 71.51784 | 1199 ft | 0 kts | 187° |
| 2026-04-26 18:32 | 33.99168 | 71.51790 | 1199 ft | 4 kts | 194° |
| 2026-04-26 18:33 | 33.99157 | 71.51785 | 1199 ft | 0 kts | 198° |
| 2026-04-26 18:33 | 33.99114 | 71.51725 | 1201 ft | 20 kts | 250° |
| 2026-04-26 18:33 | 33.99106 | 71.51524 | 1200 ft | 23 kts | 285° |
| 2026-04-26 18:33 | 33.99188 | 71.51468 | 1199 ft | 0 kts | 1° |
| 2026-04-26 18:34 | 33.99190 | 71.51477 | 1199 ft | 1 kts | 83° |
| 2026-04-26 18:34 | 33.99186 | 71.51480 | 1199 ft | 0 kts | 133° |
| 2026-04-26 18:34 | 33.99181 | 71.51480 | 1199 ft | 2 kts | 168° |
| 2026-04-26 18:34 | 33.99109 | 71.51483 | 1199 ft | 18 kts | 178° |
| 2026-04-26 18:35 | 33.98949 | 71.51490 | 1204 ft | 27 kts | 176° |
| 2026-04-26 18:35 | 33.98735 | 71.51508 | 1210 ft | 35 kts | 176° |
| 2026-04-26 18:35 | 33.98481 | 71.51529 | 1218 ft | 39 kts | 176° |
| 2026-04-26 18:35 | 33.98242 | 71.51521 | 1221 ft | 28 kts | 203° |
| 2026-04-26 18:36 | 33.98160 | 71.51520 | 1222 ft | 6 kts | 114° |
| 2026-04-26 18:36 | 33.98188 | 71.51558 | 1222 ft | 1 kts | 8° |
| 2026-04-26 18:36 | 33.98189 | 71.51557 | 1222 ft | 0 kts | 356° |
| 2026-04-26 18:39 | 33.98193 | 71.51556 | 1222 ft | 5 kts | 355° |
| 2026-04-26 18:39 | 33.98532 | 71.51523 | 1217 ft | 102 kts | 356° |
| 2026-04-26 18:39 | 33.99532 | 71.51444 | 1317 ft | 173 kts | 355° |
| 2026-04-26 18:39 | 34.00782 | 71.51365 | 1918 ft | 188 kts | 356° |
| 2026-04-26 18:40 | 34.02011 | 71.51263 | 2427 ft | 169 kts | 354° |
| 2026-04-26 18:40 | 34.03190 | 71.51148 | 3032 ft | 172 kts | 354° |
| 2026-04-26 18:40 | 34.04375 | 71.51036 | 4073 ft | 168 kts | 354° |
| 2026-04-26 18:40 | 34.05540 | 71.50932 | 5144 ft | 169 kts | 354° |
| 2026-04-26 18:41 | 34.06727 | 71.50829 | 6155 ft | 172 kts | 354° |
| 2026-04-26 18:41 | 34.07933 | 71.50725 | 7122 ft | 175 kts | 354° |
| 2026-04-26 18:41 | 34.09161 | 71.50620 | 8101 ft | 179 kts | 354° |
| 2026-04-26 18:41 | 34.10410 | 71.50512 | 9092 ft | 182 kts | 354° |
| 2026-04-26 18:42 | 34.11688 | 71.50446 | 10047 ft | 187 kts | 5° |
| 2026-04-26 18:42 | 34.12871 | 71.51112 | 10923 ft | 195 kts | 43° |
| 2026-04-26 18:42 | 34.13499 | 71.52537 | 11809 ft | 200 kts | 81° |
| 2026-04-26 18:42 | 34.13302 | 71.54181 | 12730 ft | 201 kts | 119° |
| 2026-04-26 18:43 | 34.12338 | 71.55364 | 13662 ft | 200 kts | 155° |
| 2026-04-26 18:43 | 34.10990 | 71.55847 | 14349 ft | 212 kts | 173° |
| 2026-04-26 18:43 | 34.09427 | 71.56128 | 14661 ft | 244 kts | 173° |
| 2026-04-26 18:43 | 34.07636 | 71.56560 | 14761 ft | 282 kts | 168° |
| 2026-04-26 18:44 | 34.05592 | 71.57253 | 14780 ft | 328 kts | 164° |
| 2026-04-26 18:44 | 34.03290 | 71.58183 | 14783 ft | 369 kts | 162° |
| 2026-04-26 18:44 | 34.00755 | 71.59276 | 14784 ft | 403 kts | 161° |
| 2026-04-26 18:44 | 33.98068 | 71.60454 | 14782 ft | 416 kts | 161° |
| 2026-04-26 18:45 | 33.95329 | 71.61654 | 14782 ft | 417 kts | 161° |
| 2026-04-26 18:45 | 33.92595 | 71.62844 | 14780 ft | 418 kts | 161° |
| 2026-04-26 18:45 | 33.89839 | 71.64037 | 14783 ft | 431 kts | 161° |
| 2026-04-26 18:45 | 33.87073 | 71.65513 | 14775 ft | 437 kts | 153° |
| 2026-04-26 18:46 | 33.84544 | 71.67474 | 14775 ft | 439 kts | 144° |
| 2026-04-26 18:46 | 33.82255 | 71.69914 | 14779 ft | 440 kts | 136° |
| 2026-04-26 18:46 | 33.80091 | 71.72527 | 14778 ft | 440 kts | 136° |
| 2026-04-26 18:46 | 33.77935 | 71.75117 | 14775 ft | 438 kts | 136° |
| 2026-04-26 18:47 | 33.75771 | 71.77702 | 14769 ft | 439 kts | 136° |
| 2026-04-26 18:47 | 33.73606 | 71.80282 | 14770 ft | 438 kts | 136° |
| 2026-04-26 18:47 | 33.71433 | 71.82866 | 14771 ft | 438 kts | 136° |
| 2026-04-26 18:47 | 33.69263 | 71.85445 | 14769 ft | 439 kts | 136° |
| 2026-04-26 18:48 | 33.67092 | 71.88023 | 14773 ft | 438 kts | 136° |
| 2026-04-26 18:48 | 33.64917 | 71.90603 | 14770 ft | 439 kts | 136° |
| 2026-04-26 18:48 | 33.62743 | 71.93181 | 14769 ft | 440 kts | 136° |
| 2026-04-26 18:48 | 33.60568 | 71.95757 | 14766 ft | 440 kts | 136° |
| 2026-04-26 18:49 | 33.58391 | 71.98335 | 14767 ft | 440 kts | 136° |
| 2026-04-26 18:49 | 33.56208 | 72.00918 | 14758 ft | 440 kts | 136° |
| 2026-04-26 18:49 | 33.54028 | 72.03493 | 14755 ft | 440 kts | 136° |
| 2026-04-26 18:49 | 33.51841 | 72.06077 | 14757 ft | 441 kts | 136° |
| 2026-04-26 18:50 | 33.49657 | 72.08656 | 14758 ft | 441 kts | 136° |
| 2026-04-26 18:50 | 33.47512 | 72.11219 | 14752 ft | 441 kts | 134° |
| 2026-04-26 18:50 | 33.45703 | 72.14190 | 14751 ft | 443 kts | 120° |
| 2026-04-26 18:50 | 33.44512 | 72.17597 | 14749 ft | 445 kts | 106° |
| 2026-04-26 18:51 | 33.43809 | 72.21200 | 14760 ft | 445 kts | 103° |
| 2026-04-26 18:51 | 33.43145 | 72.24817 | 14751 ft | 445 kts | 103° |
| 2026-04-26 18:51 | 33.42480 | 72.28433 | 14757 ft | 445 kts | 103° |
| 2026-04-26 18:51 | 33.41814 | 72.32051 | 14759 ft | 445 kts | 103° |
| 2026-04-26 18:52 | 33.41148 | 72.35669 | 14762 ft | 444 kts | 103° |
| 2026-04-26 18:52 | 33.40486 | 72.39271 | 14759 ft | 444 kts | 103° |
| 2026-04-26 18:52 | 33.39821 | 72.42882 | 14762 ft | 444 kts | 103° |
| 2026-04-26 18:52 | 33.39164 | 72.46447 | 14762 ft | 444 kts | 103° |
| 2026-04-26 18:53 | 33.38497 | 72.50068 | 14761 ft | 444 kts | 103° |
| 2026-04-26 18:53 | 33.37934 | 72.53702 | 14764 ft | 444 kts | 95° |
| 2026-04-26 18:53 | 33.38003 | 72.57387 | 14767 ft | 444 kts | 82° |
| 2026-04-26 18:53 | 33.38782 | 72.60962 | 14756 ft | 442 kts | 68° |
| 2026-04-26 18:54 | 33.40202 | 72.64177 | 14601 ft | 431 kts | 54° |
| 2026-04-26 18:54 | 33.42160 | 72.66769 | 14441 ft | 411 kts | 39° |
| 2026-04-26 18:54 | 33.44508 | 72.68525 | 14258 ft | 388 kts | 21° |
| 2026-04-26 18:54 | 33.47043 | 72.69283 | 14084 ft | 365 kts | 4° |
| 2026-04-26 18:55 | 33.49517 | 72.69520 | 13923 ft | 347 kts | 2° |
| 2026-04-26 18:55 | 33.51857 | 72.69929 | 13781 ft | 333 kts | 16° |
| 2026-04-26 18:55 | 33.53840 | 72.71217 | 13608 ft | 321 kts | 39° |
| 2026-04-26 18:55 | 33.55239 | 72.73266 | 13182 ft | 319 kts | 62° |
| 2026-04-26 18:56 | 33.55853 | 72.75792 | 12702 ft | 317 kts | 86° |
| 2026-04-26 18:56 | 33.55597 | 72.78329 | 12231 ft | 315 kts | 109° |
| 2026-04-26 18:56 | 33.54785 | 72.80751 | 11771 ft | 313 kts | 115° |
| 2026-04-26 18:56 | 33.53613 | 72.82877 | 11311 ft | 310 kts | 132° |
| 2026-04-26 18:57 | 33.52177 | 72.84789 | 10776 ft | 306 kts | 133° |
| 2026-04-26 18:57 | 33.51229 | 72.86040 | 10604 ft | 294 kts | 133° |
| 2026-04-26 18:57 | 33.49484 | 72.88343 | 10324 ft | 272 kts | 133° |
| 2026-04-26 18:57 | 33.48218 | 72.90010 | 9862 ft | 269 kts | 133° |
| 2026-04-26 18:58 | 33.46961 | 72.91659 | 9334 ft | 268 kts | 133° |
| 2026-04-26 18:58 | 33.45711 | 72.93296 | 8798 ft | 266 kts | 133° |
| 2026-04-26 18:58 | 33.44461 | 72.94936 | 8274 ft | 266 kts | 133° |
| 2026-04-26 18:58 | 33.43218 | 72.96566 | 7768 ft | 265 kts | 133° |
| 2026-04-26 18:59 | 33.41979 | 72.98191 | 7264 ft | 264 kts | 133° |
| 2026-04-26 18:59 | 33.40743 | 72.99825 | 6774 ft | 263 kts | 130° |
| 2026-04-26 18:59 | 33.39921 | 73.01753 | 6279 ft | 262 kts | 101° |
| 2026-04-26 18:59 | 33.39947 | 73.03883 | 5746 ft | 257 kts | 71° |
| 2026-04-26 19:00 | 33.40620 | 73.05849 | 5294 ft | 253 kts | 63° |
| 2026-04-26 19:00 | 33.41390 | 73.07726 | 4852 ft | 249 kts | 51° |
| 2026-04-26 19:00 | 33.42652 | 73.09044 | 4395 ft | 239 kts | 21° |
| 2026-04-26 19:00 | 33.44238 | 73.09503 | 3929 ft | 233 kts | 3° |
| 2026-04-26 19:01 | 33.45832 | 73.09692 | 3661 ft | 226 kts | 2° |
| 2026-04-26 19:01 | 33.47350 | 73.09798 | 3567 ft | 211 kts | 354° |
| 2026-04-26 19:01 | 33.48740 | 73.09270 | 3566 ft | 213 kts | 323° |
| 2026-04-26 19:01 | 33.49795 | 73.08062 | 3568 ft | 207 kts | 313° |
| 2026-04-26 19:02 | 33.50782 | 73.06793 | 3562 ft | 208 kts | 311° |
| 2026-04-26 19:02 | 33.51409 | 73.05264 | 3575 ft | 210 kts | 283° |
| 2026-04-26 19:02 | 33.51620 | 73.03539 | 3577 ft | 205 kts | 278° |
| 2026-04-26 19:02 | 33.51741 | 73.02459 | 3556 ft | 187 kts | 279° |
| 2026-04-26 19:03 | 33.52005 | 73.00556 | 3555 ft | 166 kts | 282° |
| 2026-04-26 19:03 | 33.52212 | 72.99218 | 3565 ft | 164 kts | 282° |
| 2026-04-26 19:03 | 33.52430 | 72.97824 | 3573 ft | 182 kts | 282° |
| 2026-04-26 19:03 | 33.52639 | 72.96462 | 3567 ft | 146 kts | 282° |
| 2026-04-26 19:04 | 33.52817 | 72.95332 | 3478 ft | 135 kts | 283° |
| 2026-04-26 19:04 | 33.52986 | 72.94247 | 3325 ft | 130 kts | 283° |
| 2026-04-26 19:04 | 33.53154 | 72.93175 | 3154 ft | 131 kts | 283° |
| 2026-04-26 19:04 | 33.53320 | 72.92106 | 3002 ft | 131 kts | 283° |
| 2026-04-26 19:05 | 33.53654 | 72.89968 | 2668 ft | 130 kts | 283° |
| 2026-04-26 19:05 | 33.53820 | 72.88902 | 2511 ft | 132 kts | 282° |
| 2026-04-26 19:05 | 33.53982 | 72.87869 | 2353 ft | 130 kts | 281° |
| 2026-04-26 19:06 | 33.54149 | 72.86796 | 2189 ft | 130 kts | 280° |
| 2026-04-26 19:06 | 33.54312 | 72.85748 | 2016 ft | 130 kts | 280° |
| 2026-04-26 19:06 | 33.54490 | 72.84648 | 1862 ft | 135 kts | 280° |
| 2026-04-26 19:06 | 33.54651 | 72.83562 | 1768 ft | 127 kts | 280° |
| 2026-04-26 19:07 | 33.54753 | 72.82900 | 1762 ft | 62 kts | 280° |
| 2026-04-26 19:07 | 33.54829 | 72.82428 | 1757 ft | 37 kts | 282° |
| 2026-04-26 19:07 | 33.54883 | 72.82080 | 1754 ft | 39 kts | 280° |
| 2026-04-26 19:07 | 33.54990 | 72.81724 | 1762 ft | 48 kts | 303° |
| 2026-04-26 19:08 | 33.55139 | 72.81593 | 1755 ft | 26 kts | 7° |
| 2026-04-26 19:08 | 33.55329 | 72.81643 | 1770 ft | 12 kts | 41° |
| 2026-04-26 19:08 | 33.55330 | 72.81702 | 1767 ft | 8 kts | 99° |
| 2026-04-26 19:08 | 33.55318 | 72.81797 | 1767 ft | 15 kts | 101° |
| 2026-04-26 19:09 | 33.55296 | 72.81936 | 1770 ft | 20 kts | 101° |
| 2026-04-26 19:09 | 33.55268 | 72.82114 | 1770 ft | 24 kts | 100° |
| 2026-04-26 19:09 | 33.55238 | 72.82332 | 1772 ft | 28 kts | 99° |
| 2026-04-26 19:09 | 33.55213 | 72.82514 | 1768 ft | 14 kts | 100° |
| 2026-04-26 19:10 | 33.55266 | 72.82599 | 1769 ft | 15 kts | 21° |
| 2026-04-26 19:10 | 33.55381 | 72.82640 | 1773 ft | 19 kts | 30° |
| 2026-04-26 19:10 | 33.55478 | 72.82765 | 1770 ft | 23 kts | 54° |
| 2026-04-26 19:10 | 33.55538 | 72.82872 | 1770 ft | 0 kts | 56° |
| 2026-04-26 19:11 | 33.55542 | 72.82904 | 1770 ft | 7 kts | 121° |
| 2026-04-26 19:11 | 33.55496 | 72.82946 | 1772 ft | 2 kts | 142° |
| 2026-04-26 19:11 | 33.55466 | 72.82971 | 1772 ft | 2 kts | 144° |
| 2026-04-26 19:11 | 33.55462 | 72.82975 | 1771 ft | 0 kts | 144° |